createdAt,value
2022-08-17T00:00:06.460Z,3.00
2022-08-17T00:00:42.674Z,2.80
2022-08-17T00:01:01.032Z,3.42
2022-08-17T00:01:22.397Z,3.85
2022-08-17T00:01:41.509Z,2.70
2022-08-17T00:02:04.972Z,2.60
2022-08-17T00:02:32.741Z,2.35
2022-08-17T00:03:31.164Z,2.70
2022-08-17T00:03:46.380Z,2.50
2022-08-17T00:03:57.854Z,2.40
2022-08-17T00:04:10.899Z,2.75
2022-08-17T00:04:23.357Z,2.70
2022-08-17T00:04:34.805Z,2.08
2022-08-17T00:04:50.466Z,2.13
2022-08-17T00:05:02.225Z,2.50
2022-08-17T00:05:15.260Z,2.50
2022-08-17T00:05:29.403Z,2.45
2022-08-17T00:05:46.862Z,2.40
2022-08-17T00:06:08.739Z,2.67
2022-08-17T00:06:26.970Z,2.40
2022-08-17T00:06:38.399Z,2.17
2022-08-17T00:06:50.244Z,2.10
2022-08-17T00:07:01.698Z,2.30
2022-08-17T00:07:13.136Z,2.40
2022-08-17T00:07:24.542Z,3.00
2022-08-17T00:07:35.920Z,3.03
2022-08-17T00:07:49.043Z,3.00
2022-08-17T00:08:00.587Z,2.58
2022-08-17T00:08:14.253Z,2.33
2022-08-17T00:08:30.239Z,2.47
2022-08-17T00:08:51.412Z,2.58
2022-08-17T00:09:04.517Z,2.90
2022-08-17T00:09:18.939Z,2.95
2022-08-17T00:09:30.742Z,2.90
2022-08-17T00:09:42.129Z,3.08
2022-08-17T00:09:53.561Z,2.83
2022-08-17T00:10:05.350Z,2.83
2022-08-17T00:10:16.953Z,2.60
2022-08-17T00:10:29.443Z,2.60
2022-08-17T00:10:45.741Z,2.65
2022-08-17T00:10:57.984Z,2.70
2022-08-17T00:11:15.892Z,2.85
2022-08-17T00:11:34.709Z,3.00
2022-08-17T00:12:42.133Z,2.80
2022-08-17T00:12:43.258Z,2.83
2022-08-17T00:12:51.367Z,2.22
2022-08-17T00:13:09.019Z,2.22
2022-08-17T00:13:34.461Z,2.40
2022-08-17T00:13:49.284Z,2.65
2022-08-17T00:14:09.652Z,2.90
2022-08-17T00:14:21.068Z,2.75
2022-08-17T00:14:32.711Z,2.58
2022-08-17T00:14:44.114Z,2.72
2022-08-17T00:14:55.532Z,2.70
2022-08-17T00:15:10.413Z,3.00
2022-08-17T00:15:23.331Z,2.70
2022-08-17T00:15:34.893Z,2.53
2022-08-17T00:15:46.952Z,2.50
2022-08-17T00:16:08.768Z,2.58
2022-08-17T00:16:55.537Z,2.65
2022-08-17T00:16:58.591Z,2.78
2022-08-17T00:17:09.972Z,2.78
2022-08-17T00:17:21.375Z,2.42
2022-08-17T00:17:32.770Z,2.38
2022-08-17T00:17:47.258Z,2.55
2022-08-17T00:17:58.660Z,2.90
2022-08-17T00:18:58.391Z,3.35
2022-08-17T00:19:06.612Z,2.70
2022-08-17T00:19:17.850Z,2.70
2022-08-17T00:19:29.276Z,2.50
2022-08-17T00:19:40.672Z,2.47
2022-08-17T00:19:52.103Z,2.40
2022-08-17T00:20:04.383Z,2.65
2022-08-17T00:20:16.731Z,2.60
2022-08-17T00:20:33.447Z,2.40
2022-08-17T00:20:46.271Z,2.20
2022-08-17T00:20:59.530Z,2.10
2022-08-17T00:21:11.671Z,2.38
2022-08-17T00:21:23.791Z,2.40
2022-08-17T00:22:29.420Z,2.20
2022-08-17T00:22:33.041Z,2.65
2022-08-17T00:22:43.511Z,2.70
2022-08-17T00:23:11.546Z,2.70
2022-08-17T00:23:24.307Z,3.22
2022-08-17T00:23:36.248Z,3.45
2022-08-17T00:23:49.181Z,2.83
2022-08-17T00:24:00.949Z,2.33
2022-08-17T00:24:13.788Z,2.20
2022-08-17T00:24:25.208Z,2.05
2022-08-17T00:24:36.625Z,2.30
2022-08-17T00:24:48.030Z,2.35
2022-08-17T00:24:59.448Z,2.40
2022-08-17T00:25:17.848Z,2.47
2022-08-17T00:25:29.247Z,3.03
2022-08-17T00:25:43.570Z,2.80
2022-08-17T00:25:55.239Z,2.35
2022-08-17T00:26:06.677Z,2.72
2022-08-17T00:26:38.764Z,3.42
2022-08-17T00:26:53.018Z,2.80
2022-08-17T00:27:04.419Z,2.85
2022-08-17T00:27:15.847Z,2.58
2022-08-17T00:27:27.273Z,2.22
2022-08-17T00:27:39.056Z,2.20
2022-08-17T00:27:50.471Z,2.60
2022-08-17T00:28:02.380Z,2.95
2022-08-17T00:28:14.917Z,2.97
2022-08-17T00:28:26.408Z,2.80
2022-08-17T00:28:42.384Z,2.63
2022-08-17T00:28:54.527Z,2.50
2022-08-17T00:29:06.295Z,2.30
2022-08-17T00:29:19.606Z,2.45
2022-08-17T00:29:31.213Z,2.70
2022-08-17T00:29:42.839Z,2.80
2022-08-17T00:29:54.240Z,2.95
2022-08-17T00:30:08.408Z,2.90
2022-08-17T00:30:19.928Z,2.85
2022-08-17T00:30:31.505Z,2.75
2022-08-17T00:31:03.236Z,3.10
2022-08-17T00:31:15.571Z,3.00
2022-08-17T00:31:27.140Z,3.13
2022-08-17T00:31:38.636Z,3.25
2022-08-17T00:31:50.078Z,3.10
2022-08-17T00:33:15.279Z,2.70
2022-08-17T00:33:16.082Z,3.15
2022-08-17T00:33:18.900Z,2.70
2022-08-17T00:33:31.897Z,2.60
2022-08-17T00:33:43.596Z,2.47
2022-08-17T00:33:55.489Z,2.40
2022-08-17T00:34:07.262Z,2.42
2022-08-17T00:34:18.677Z,2.38
2022-08-17T00:34:33.020Z,2.38
2022-08-17T00:34:45.116Z,2.28
2022-08-17T00:34:56.524Z,2.20
2022-08-17T00:35:09.684Z,2.40
2022-08-17T00:35:23.067Z,2.63
2022-08-17T00:35:34.683Z,2.60
2022-08-17T00:35:47.934Z,2.70
2022-08-17T00:36:00.902Z,2.50
2022-08-17T00:36:14.291Z,2.22
2022-08-17T00:36:25.732Z,2.42
2022-08-17T00:36:37.356Z,3.20
2022-08-17T00:36:51.518Z,3.10
2022-08-17T00:37:03.011Z,2.63
2022-08-17T00:37:14.496Z,2.45
2022-08-17T00:37:25.991Z,2.47
2022-08-17T00:37:37.361Z,2.75
2022-08-17T00:37:52.049Z,2.67
2022-08-17T00:38:03.462Z,2.50
2022-08-17T00:38:16.228Z,2.40
2022-08-17T00:38:29.248Z,2.38
2022-08-17T00:38:41.153Z,2.53
2022-08-17T00:38:53.070Z,2.50
2022-08-17T00:39:05.375Z,2.53
2022-08-17T00:39:16.773Z,2.30
2022-08-17T00:39:28.228Z,2.25
2022-08-17T00:39:39.761Z,2.33
2022-08-17T00:39:51.266Z,2.40
2022-08-17T00:40:03.915Z,2.63
2022-08-17T00:40:15.965Z,2.83
2022-08-17T00:40:27.528Z,2.75
2022-08-17T00:41:02.086Z,2.42
2022-08-17T00:41:20.087Z,2.25
2022-08-17T00:41:32.184Z,2.50
2022-08-17T00:41:43.586Z,2.40
2022-08-17T00:41:55.215Z,2.17
2022-08-17T00:42:17.991Z,2.10
2022-08-17T00:42:31.302Z,2.47
2022-08-17T00:42:48.939Z,2.38
2022-08-17T00:43:15.026Z,2.20
2022-08-17T00:43:32.445Z,2.97
2022-08-17T00:43:50.829Z,3.10
2022-08-17T00:44:04.008Z,2.40
2022-08-17T00:44:15.445Z,2.30
2022-08-17T00:44:30.363Z,2.28
2022-08-17T00:44:42.831Z,2.15
2022-08-17T00:44:54.231Z,2.20
2022-08-17T00:45:10.078Z,2.28
2022-08-17T00:45:21.655Z,2.58
2022-08-17T00:45:33.055Z,2.33
2022-08-17T00:45:45.376Z,2.38
2022-08-17T00:45:58.319Z,2.47
2022-08-17T00:46:15.947Z,2.63
2022-08-17T00:46:33.832Z,2.30
2022-08-17T00:46:45.269Z,2.03
2022-08-17T00:46:56.645Z,2.22
2022-08-17T00:47:08.149Z,2.40
2022-08-17T00:47:19.587Z,2.30
2022-08-17T00:47:31.091Z,2.33
2022-08-17T00:47:43.437Z,2.40
2022-08-17T00:47:54.850Z,2.42
2022-08-17T00:48:06.289Z,2.20
2022-08-17T00:48:37.944Z,2.47
2022-08-17T00:48:50.730Z,2.45
2022-08-17T00:49:03.552Z,2.60
2022-08-17T00:49:15.898Z,2.55
2022-08-17T00:49:27.310Z,2.67
2022-08-17T00:49:38.737Z,2.67
2022-08-17T00:49:51.373Z,2.72
2022-08-17T00:50:04.743Z,2.70
2022-08-17T00:50:19.130Z,2.67
2022-08-17T00:50:30.559Z,2.67
2022-08-17T00:50:50.005Z,2.60
2022-08-17T00:51:24.246Z,2.28
2022-08-17T00:51:44.573Z,2.75
2022-08-17T00:52:01.546Z,2.70
2022-08-17T00:52:16.732Z,2.53
2022-08-17T00:52:35.154Z,2.47
2022-08-17T00:52:55.903Z,2.78
2022-08-17T00:53:07.467Z,2.40
2022-08-17T00:53:19.165Z,2.30
2022-08-17T00:53:33.710Z,2.85
2022-08-17T00:53:51.007Z,2.90
2022-08-17T00:54:13.903Z,2.42
2022-08-17T00:54:30.850Z,2.35
2022-08-17T00:54:46.931Z,2.47
2022-08-17T00:54:59.419Z,2.50
2022-08-17T00:55:11.512Z,2.50
2022-08-17T00:55:25.249Z,2.45
2022-08-17T00:55:36.831Z,2.50
2022-08-17T00:55:48.477Z,2.50
2022-08-17T00:56:03.555Z,2.40
2022-08-17T00:56:20.188Z,2.70
2022-08-17T00:56:36.059Z,2.55
2022-08-17T00:57:01.723Z,2.60
2022-08-17T00:57:18.951Z,3.08
2022-08-17T00:57:36.403Z,2.78
2022-08-17T00:57:55.248Z,3.05
2022-08-17T00:58:07.199Z,2.83
2022-08-17T00:58:19.283Z,3.03
2022-08-17T00:58:41.958Z,3.30
2022-08-17T00:58:55.154Z,3.17
2022-08-17T00:59:08.956Z,3.03
2022-08-17T00:59:25.695Z,3.13
2022-08-17T00:59:45.550Z,3.10
2022-08-17T01:00:03.518Z,2.80
2022-08-17T01:00:21.014Z,2.90
2022-08-17T01:00:42.865Z,2.90
2022-08-17T01:00:54.354Z,3.10
2022-08-17T01:01:08.467Z,3.10
2022-08-17T01:01:21.413Z,3.05
2022-08-17T01:01:34.159Z,2.90
2022-08-17T01:01:47.859Z,3.03
2022-08-17T01:01:59.802Z,2.97
2022-08-17T01:02:14.197Z,2.90
2022-08-17T01:02:27.568Z,2.70
2022-08-17T01:02:42.949Z,2.60
2022-08-17T01:02:58.339Z,2.65
2022-08-17T01:03:14.981Z,3.83
2022-08-17T01:03:26.597Z,3.75
2022-08-17T01:03:38.925Z,3.20
2022-08-17T01:03:55.556Z,3.38
2022-08-17T01:04:12.850Z,3.58
2022-08-17T01:04:27.298Z,3.63
2022-08-17T01:04:38.976Z,3.20
2022-08-17T01:04:52.242Z,2.85
2022-08-17T01:05:04.229Z,2.78
2022-08-17T01:05:23.046Z,2.65
2022-08-17T01:05:36.253Z,2.55
2022-08-17T01:05:51.550Z,2.78
2022-08-17T01:06:05.963Z,2.80
2022-08-17T01:06:17.887Z,2.55
2022-08-17T01:06:29.616Z,2.67
2022-08-17T01:06:42.974Z,2.90
2022-08-17T01:06:56.562Z,2.92
2022-08-17T01:07:08.343Z,2.80
2022-08-17T01:07:23.471Z,2.78
2022-08-17T01:07:35.146Z,2.88
2022-08-17T01:07:50.400Z,2.95
2022-08-17T01:08:02.174Z,2.65
2022-08-17T01:08:16.596Z,2.60
2022-08-17T01:08:30.910Z,2.92
2022-08-17T01:08:42.621Z,3.22
2022-08-17T01:08:57.533Z,2.97
2022-08-17T01:09:09.406Z,2.63
2022-08-17T01:09:21.480Z,2.78
2022-08-17T01:09:33.558Z,3.08
2022-08-17T01:09:45.031Z,3.10
2022-08-17T01:09:57.004Z,2.88
2022-08-17T01:10:58.881Z,2.80
2022-08-17T01:10:59.652Z,2.72
2022-08-17T01:11:13.134Z,2.60
2022-08-17T01:11:24.846Z,2.80
2022-08-17T01:11:36.471Z,2.95
2022-08-17T01:11:48.622Z,2.70
2022-08-17T01:12:00.317Z,2.65
2022-08-17T01:12:12.287Z,2.63
2022-08-17T01:12:23.706Z,2.80
2022-08-17T01:12:36.143Z,2.75
2022-08-17T01:12:47.572Z,2.67
2022-08-17T01:13:01.005Z,2.70
2022-08-17T01:13:13.609Z,2.88
2022-08-17T01:13:25.600Z,2.90
2022-08-17T01:13:41.735Z,2.90
2022-08-17T01:13:53.406Z,2.70
2022-08-17T01:14:04.791Z,2.83
2022-08-17T01:14:16.241Z,2.90
2022-08-17T01:14:27.694Z,2.90
2022-08-17T01:14:40.122Z,2.58
2022-08-17T01:14:51.519Z,2.50
2022-08-17T01:15:04.730Z,2.50
2022-08-17T01:15:16.610Z,2.58
2022-08-17T01:15:30.983Z,2.53
2022-08-17T01:16:13.911Z,2.85
2022-08-17T01:16:28.526Z,2.95
2022-08-17T01:16:40.036Z,2.95
2022-08-17T01:16:53.891Z,2.90
2022-08-17T01:17:06.918Z,3.20
2022-08-17T01:17:18.376Z,3.15
2022-08-17T01:17:29.968Z,3.08
2022-08-17T01:17:41.740Z,2.85
2022-08-17T01:17:53.102Z,2.90
2022-08-17T01:18:07.886Z,2.70
2022-08-17T01:18:21.255Z,2.70
2022-08-17T01:18:33.895Z,2.72
2022-08-17T01:18:48.926Z,2.70
2022-08-17T01:19:04.318Z,2.63
2022-08-17T01:19:22.571Z,2.65
2022-08-17T01:19:37.181Z,2.63
2022-08-17T01:19:48.626Z,3.30
2022-08-17T01:20:00.087Z,3.60
2022-08-17T01:20:11.932Z,3.28
2022-08-17T01:20:23.440Z,3.28
2022-08-17T01:20:48.175Z,3.28
2022-08-17T01:21:07.043Z,2.80
2022-08-17T01:21:27.159Z,2.97
2022-08-17T01:22:06.756Z,2.92
2022-08-17T01:22:26.296Z,2.60
2022-08-17T01:22:37.875Z,2.58
2022-08-17T01:22:49.416Z,2.30
2022-08-17T01:23:01.739Z,2.42
2022-08-17T01:23:18.469Z,2.63
2022-08-17T01:23:32.425Z,3.30
2022-08-17T01:23:43.795Z,3.65
2022-08-17T01:23:56.247Z,3.28
2022-08-17T01:24:08.107Z,3.03
2022-08-17T01:24:19.515Z,2.90
2022-08-17T01:24:31.346Z,2.75
2022-08-17T01:24:49.801Z,2.88
2022-08-17T01:25:04.161Z,2.88
2022-08-17T01:25:18.178Z,2.85
2022-08-17T01:25:34.924Z,2.75
2022-08-17T01:25:55.695Z,2.75
2022-08-17T01:26:08.140Z,2.80
2022-08-17T01:26:20.046Z,3.03
2022-08-17T01:26:32.484Z,3.47
2022-08-17T01:26:45.155Z,3.47
2022-08-17T01:26:57.684Z,3.42
2022-08-17T01:27:10.780Z,3.42
2022-08-17T01:27:23.262Z,3.38
2022-08-17T01:27:37.544Z,3.13
2022-08-17T01:27:49.606Z,3.10
2022-08-17T01:28:01.024Z,2.83
2022-08-17T01:28:33.466Z,2.70
2022-08-17T01:28:53.625Z,2.67
2022-08-17T01:29:07.116Z,3.22
2022-08-17T01:29:21.982Z,3.00
2022-08-17T01:29:35.011Z,2.70
2022-08-17T01:29:50.537Z,2.88
2022-08-17T01:30:06.703Z,2.88
2022-08-17T01:30:57.060Z,3.00
2022-08-17T01:31:10.099Z,2.92
2022-08-17T01:31:22.488Z,2.88
2022-08-17T01:31:38.910Z,2.80
2022-08-17T01:31:54.724Z,2.50
2022-08-17T01:32:07.771Z,2.58
2022-08-17T01:32:20.646Z,2.83
2022-08-17T01:32:32.634Z,3.07
2022-08-17T01:32:44.155Z,3.00
2022-08-17T01:32:55.558Z,3.00
2022-08-17T01:33:06.982Z,2.90
2022-08-17T01:33:18.407Z,2.90
2022-08-17T01:33:30.073Z,2.92
2022-08-17T01:33:41.640Z,3.17
2022-08-17T01:33:53.164Z,3.08
2022-08-17T01:34:08.235Z,2.75
2022-08-17T01:34:20.801Z,2.80
2022-08-17T01:34:42.897Z,2.85
2022-08-17T01:34:55.708Z,3.50
2022-08-17T01:35:08.267Z,3.58
2022-08-17T01:35:19.714Z,2.97
2022-08-17T01:35:31.655Z,2.78
2022-08-17T01:35:43.067Z,2.90
2022-08-17T01:35:54.686Z,3.13
2022-08-17T01:36:07.504Z,3.13
2022-08-17T01:36:19.144Z,3.20
2022-08-17T01:36:30.747Z,2.90
2022-08-17T01:36:44.497Z,2.90
2022-08-17T01:36:56.756Z,2.90
2022-08-17T01:37:10.391Z,2.70
2022-08-17T01:37:30.785Z,2.78
2022-08-17T01:37:42.981Z,2.85
2022-08-17T01:37:54.384Z,2.80
2022-08-17T01:38:06.735Z,3.20
2022-08-17T01:38:18.175Z,3.22
2022-08-17T01:38:39.492Z,3.00
2022-08-17T01:38:51.038Z,2.80
2022-08-17T01:39:03.135Z,3.00
2022-08-17T01:39:30.312Z,3.13
2022-08-17T01:39:45.559Z,2.90
2022-08-17T01:40:14.872Z,2.85
2022-08-17T01:40:34.832Z,3.17
2022-08-17T01:40:57.067Z,3.03
2022-08-17T01:41:14.350Z,2.85
2022-08-17T01:41:26.989Z,3.08
2022-08-17T01:41:40.073Z,3.00
2022-08-17T01:41:54.692Z,2.75
2022-08-17T01:42:29.121Z,2.55
2022-08-17T01:42:51.290Z,3.10
2022-08-17T01:43:13.827Z,2.80
2022-08-17T01:43:30.316Z,2.75
2022-08-17T01:43:49.551Z,2.63
2022-08-17T01:44:04.201Z,2.60
2022-08-17T01:44:16.322Z,2.90
2022-08-17T01:44:28.129Z,2.97
2022-08-17T01:44:39.549Z,3.05
2022-08-17T01:44:55.930Z,2.60
2022-08-17T01:45:29.836Z,2.70
2022-08-17T01:45:45.911Z,2.75
2022-08-17T01:46:03.522Z,3.25
2022-08-17T01:46:21.875Z,3.10
2022-08-17T01:46:37.369Z,3.20
2022-08-17T01:46:49.466Z,3.00
2022-08-17T01:47:00.975Z,2.45
2022-08-17T01:47:12.749Z,2.38
2022-08-17T01:47:24.211Z,2.75
2022-08-17T01:47:36.138Z,2.97
2022-08-17T01:47:47.592Z,3.00
2022-08-17T01:48:00.412Z,2.83
2022-08-17T01:48:12.709Z,2.78
2022-08-17T01:48:24.177Z,2.60
2022-08-17T01:48:37.908Z,2.40
2022-08-17T01:48:49.330Z,2.35
2022-08-17T01:49:01.614Z,2.45
2022-08-17T01:49:13.014Z,2.70
2022-08-17T01:49:24.592Z,2.72
2022-08-17T01:49:36.100Z,2.65
2022-08-17T01:49:48.571Z,2.50
2022-08-17T01:50:06.004Z,2.67
2022-08-17T01:50:21.656Z,2.90
2022-08-17T01:50:36.245Z,2.63
2022-08-17T01:50:50.069Z,2.58
2022-08-17T01:51:01.717Z,2.75
2022-08-17T01:51:14.773Z,2.70
2022-08-17T01:51:28.928Z,2.50
2022-08-17T01:51:40.485Z,2.80
2022-08-17T01:51:52.053Z,3.25
2022-08-17T01:52:11.865Z,3.30
2022-08-17T01:52:23.521Z,2.70
2022-08-17T01:52:35.284Z,2.67
2022-08-17T01:52:51.573Z,2.75
2022-08-17T01:53:08.885Z,2.78
2022-08-17T01:53:37.053Z,2.85
2022-08-17T01:53:52.874Z,2.92
2022-08-17T01:54:11.383Z,2.53
2022-08-17T01:54:25.005Z,2.60
2022-08-17T01:54:39.628Z,2.78
2022-08-17T01:54:52.325Z,2.83
2022-08-17T01:55:06.450Z,2.90
2022-08-17T01:55:27.230Z,2.70
2022-08-17T01:56:01.217Z,3.15
2022-08-17T01:56:16.795Z,2.85
2022-08-17T01:56:30.408Z,3.08
2022-08-17T01:56:47.306Z,3.00
2022-08-17T01:56:59.182Z,2.83
2022-08-17T01:57:10.670Z,2.80
2022-08-17T01:57:22.101Z,2.75
2022-08-17T01:57:34.880Z,2.70
2022-08-17T01:57:46.271Z,2.70
2022-08-17T01:57:58.164Z,2.72
2022-08-17T01:58:10.571Z,2.70
2022-08-17T01:58:22.841Z,2.80
2022-08-17T01:58:35.804Z,2.70
2022-08-17T01:58:47.384Z,2.50
2022-08-17T01:58:58.788Z,2.58
2022-08-17T01:59:11.550Z,2.75
2022-08-17T01:59:22.970Z,2.80
2022-08-17T01:59:34.435Z,2.70
2022-08-17T01:59:45.977Z,2.70
2022-08-17T01:59:57.405Z,2.53
2022-08-17T02:00:09.301Z,2.55
2022-08-17T02:00:21.084Z,2.70
2022-08-17T02:01:00.158Z,2.65
2022-08-17T02:01:05.375Z,2.80
2022-08-17T02:01:21.691Z,2.90
2022-08-17T02:01:34.721Z,2.72
2022-08-17T02:01:47.334Z,2.65
2022-08-17T02:01:58.958Z,2.78
2022-08-17T02:02:10.393Z,2.58
2022-08-17T02:02:30.321Z,2.70
2022-08-17T02:02:42.863Z,2.45
2022-08-17T02:02:54.300Z,2.50
2022-08-17T02:03:06.145Z,2.67
2022-08-17T02:03:22.590Z,2.63
2022-08-17T02:03:36.042Z,2.50
2022-08-17T02:03:59.502Z,2.60
2022-08-17T02:04:13.388Z,2.85
2022-08-17T02:04:24.856Z,2.75
2022-08-17T02:04:36.273Z,2.78
2022-08-17T02:04:47.668Z,2.90
2022-08-17T02:05:00.397Z,3.00
2022-08-17T02:05:12.359Z,2.80
2022-08-17T02:05:24.471Z,2.42
2022-08-17T02:05:36.090Z,2.55
2022-08-17T02:05:48.098Z,2.78
2022-08-17T02:05:59.497Z,2.80
2022-08-17T02:06:27.141Z,2.65
2022-08-17T02:06:45.392Z,3.00
2022-08-17T02:07:05.320Z,3.00
2022-08-17T02:07:16.780Z,2.58
2022-08-17T02:07:29.120Z,2.90
2022-08-17T02:07:59.785Z,2.97
2022-08-17T02:08:19.846Z,2.67
2022-08-17T02:08:37.024Z,2.78
2022-08-17T02:09:03.245Z,2.78
2022-08-17T02:09:16.872Z,2.75
2022-08-17T02:09:30.229Z,2.90
2022-08-17T02:09:42.107Z,3.00
2022-08-17T02:09:53.772Z,2.90
2022-08-17T02:10:18.974Z,2.83
2022-08-17T02:10:33.942Z,2.85
2022-08-17T02:10:47.319Z,2.67
2022-08-17T02:10:58.748Z,3.10
2022-08-17T02:11:16.673Z,3.20
2022-08-17T02:11:28.521Z,2.78
2022-08-17T02:11:41.107Z,2.72
2022-08-17T02:11:58.568Z,2.65
2022-08-17T02:12:41.517Z,2.78
2022-08-17T02:12:47.940Z,2.80
2022-08-17T02:12:53.050Z,2.85
2022-08-17T02:13:04.820Z,3.08
2022-08-17T02:13:18.808Z,2.95
2022-08-17T02:13:31.313Z,2.65
2022-08-17T02:13:44.261Z,2.60
2022-08-17T02:14:02.471Z,2.78
2022-08-17T02:14:15.308Z,2.80
2022-08-17T02:14:26.991Z,2.83
2022-08-17T02:14:38.412Z,2.90
2022-08-17T02:14:49.829Z,3.13
2022-08-17T02:15:01.902Z,3.45
2022-08-17T02:15:13.306Z,3.72
2022-08-17T02:15:25.059Z,3.50
2022-08-17T02:15:36.460Z,3.10
2022-08-17T02:15:47.884Z,3.08
2022-08-17T02:16:00.684Z,2.72
2022-08-17T02:16:12.640Z,2.92
2022-08-17T02:16:24.034Z,2.80
2022-08-17T02:16:38.297Z,2.47
2022-08-17T02:16:50.082Z,2.70
2022-08-17T02:17:01.554Z,3.05
2022-08-17T02:17:12.961Z,3.25
2022-08-17T02:17:24.372Z,3.20
2022-08-17T02:17:35.869Z,3.20
2022-08-17T02:17:47.490Z,3.08
2022-08-17T02:18:06.982Z,2.97
2022-08-17T02:18:18.386Z,2.90
2022-08-17T02:18:30.047Z,3.00
2022-08-17T02:18:41.737Z,2.90
2022-08-17T02:18:53.184Z,2.70
2022-08-17T02:19:11.785Z,2.70
2022-08-17T02:19:23.344Z,2.55
2022-08-17T02:19:34.776Z,2.42
2022-08-17T02:19:46.197Z,2.58
2022-08-17T02:19:58.769Z,2.78
2022-08-17T02:20:10.777Z,3.00
2022-08-17T02:20:36.444Z,2.90
2022-08-17T02:20:54.276Z,2.80
2022-08-17T02:21:06.104Z,2.90
2022-08-17T02:21:17.595Z,2.75
2022-08-17T02:21:29.035Z,2.67
2022-08-17T02:21:42.154Z,2.63
2022-08-17T02:21:54.415Z,2.70
2022-08-17T02:22:05.921Z,2.72
2022-08-17T02:22:17.547Z,2.70
2022-08-17T02:22:29.009Z,2.80
2022-08-17T02:22:43.196Z,2.78
2022-08-17T02:22:55.503Z,2.58
2022-08-17T02:23:07.791Z,2.38
2022-08-17T02:23:22.709Z,2.33
2022-08-17T02:23:38.500Z,2.58
2022-08-17T02:23:50.109Z,3.00
2022-08-17T02:24:01.862Z,2.72
2022-08-17T02:24:17.360Z,2.60
2022-08-17T02:25:00.619Z,2.47
2022-08-17T02:25:06.197Z,2.40
2022-08-17T02:25:20.193Z,2.42
2022-08-17T02:25:33.550Z,2.60
2022-08-17T02:25:46.754Z,2.53
2022-08-17T02:26:00.182Z,2.50
2022-08-17T02:26:23.988Z,2.67
2022-08-17T02:26:38.116Z,2.50
2022-08-17T02:26:49.633Z,2.42
2022-08-17T02:27:01.040Z,2.58
2022-08-17T02:27:12.542Z,2.47
2022-08-17T02:27:24.019Z,2.55
2022-08-17T02:27:36.991Z,2.83
2022-08-17T02:27:49.113Z,3.00
2022-08-17T02:28:00.515Z,2.75
2022-08-17T02:28:11.904Z,2.38
2022-08-17T02:28:23.494Z,2.47
2022-08-17T02:28:35.278Z,2.60
2022-08-17T02:28:46.718Z,2.53
2022-08-17T02:28:58.140Z,2.40
2022-08-17T02:29:09.574Z,2.47
2022-08-17T02:29:21.009Z,2.50
2022-08-17T02:29:32.565Z,2.60
2022-08-17T02:29:44.169Z,2.60
2022-08-17T02:29:55.631Z,2.40
2022-08-17T02:30:59.803Z,2.45
2022-08-17T02:31:01.156Z,2.58
2022-08-17T02:31:14.361Z,3.00
2022-08-17T02:31:25.865Z,3.08
2022-08-17T02:31:37.346Z,2.97
2022-08-17T02:31:48.997Z,2.80
2022-08-17T02:32:00.410Z,2.50
2022-08-17T02:32:27.308Z,2.53
2022-08-17T02:32:40.747Z,2.60
2022-08-17T02:32:53.158Z,2.72
2022-08-17T02:33:06.400Z,2.97
2022-08-17T02:33:21.371Z,2.97
2022-08-17T02:33:43.298Z,2.90
2022-08-17T02:34:00.350Z,2.50
2022-08-17T02:34:16.232Z,2.70
2022-08-17T02:34:27.881Z,2.72
2022-08-17T02:34:39.283Z,2.70
2022-08-17T02:34:50.910Z,2.70
2022-08-17T02:35:03.846Z,2.63
2022-08-17T02:35:15.252Z,2.78
2022-08-17T02:35:30.836Z,2.88
2022-08-17T02:35:42.365Z,2.80
2022-08-17T02:35:53.750Z,2.83
2022-08-17T02:36:07.234Z,2.90
2022-08-17T02:36:18.713Z,2.85
2022-08-17T02:36:30.141Z,2.83
2022-08-17T02:36:41.813Z,2.72
2022-08-17T02:36:53.241Z,2.70
2022-08-17T02:37:04.701Z,2.78
2022-08-17T02:37:16.542Z,3.00
2022-08-17T02:37:29.684Z,3.05
2022-08-17T02:37:41.100Z,2.83
2022-08-17T02:37:55.666Z,2.60
2022-08-17T02:38:07.332Z,2.67
2022-08-17T02:38:18.693Z,2.78
2022-08-17T02:38:30.501Z,2.72
2022-08-17T02:38:43.529Z,3.00
2022-08-17T02:38:54.943Z,3.00
2022-08-17T02:39:08.920Z,2.70
2022-08-17T02:39:20.353Z,2.70
2022-08-17T02:39:31.793Z,2.90
2022-08-17T02:39:44.587Z,2.80
2022-08-17T02:39:57.360Z,2.80
2022-08-17T02:40:10.887Z,2.90
2022-08-17T02:40:35.726Z,2.97
2022-08-17T02:40:48.108Z,2.95
2022-08-17T02:41:01.216Z,3.00
2022-08-17T02:41:12.712Z,2.88
2022-08-17T02:41:24.204Z,3.00
2022-08-17T02:41:36.546Z,3.03
2022-08-17T02:41:48.038Z,2.90
2022-08-17T02:42:01.339Z,2.85
2022-08-17T02:42:14.076Z,2.92
2022-08-17T02:42:46.098Z,2.97
2022-08-17T02:42:58.776Z,3.00
2022-08-17T02:43:11.095Z,2.88
2022-08-17T02:43:22.501Z,2.90
2022-08-17T02:43:33.922Z,2.70
2022-08-17T02:43:45.343Z,2.75
2022-08-17T02:43:56.775Z,2.80
2022-08-17T02:44:08.217Z,2.53
2022-08-17T02:44:39.994Z,2.50
2022-08-17T02:44:51.083Z,3.13
2022-08-17T02:45:06.140Z,3.00
2022-08-17T02:45:22.951Z,2.85
2022-08-17T02:45:34.871Z,2.92
2022-08-17T02:45:46.283Z,2.80
2022-08-17T02:45:57.971Z,2.70
2022-08-17T02:46:09.605Z,2.50
2022-08-17T02:46:21.107Z,2.63
2022-08-17T02:46:33.198Z,2.78
2022-08-17T02:46:44.599Z,3.53
2022-08-17T02:46:56.227Z,3.50
2022-08-17T02:47:09.119Z,3.22
2022-08-17T02:47:20.537Z,2.72
2022-08-17T02:47:31.968Z,2.88
2022-08-17T02:47:44.751Z,3.00
2022-08-17T02:47:56.168Z,2.97
2022-08-17T02:48:07.964Z,2.92
2022-08-17T02:48:31.478Z,2.70
2022-08-17T02:48:43.385Z,2.58
2022-08-17T02:48:54.790Z,2.70
2022-08-17T02:49:06.199Z,2.67
2022-08-17T02:49:17.589Z,2.88
2022-08-17T02:49:28.996Z,3.00
2022-08-17T02:49:40.479Z,2.97
2022-08-17T02:49:54.078Z,3.00
2022-08-17T02:50:09.664Z,2.92
2022-08-17T02:50:23.953Z,3.00
2022-08-17T02:50:35.493Z,3.30
2022-08-17T02:50:47.052Z,3.22
2022-08-17T02:50:59.755Z,2.92
2022-08-17T02:51:11.219Z,2.72
2022-08-17T02:51:22.995Z,2.70
2022-08-17T02:51:34.418Z,2.72
2022-08-17T02:51:45.811Z,2.95
2022-08-17T02:51:58.093Z,3.13
2022-08-17T02:52:09.501Z,3.30
2022-08-17T02:53:01.965Z,3.10
2022-08-17T02:53:02.001Z,3.10
2022-08-17T02:53:14.559Z,3.17
2022-08-17T02:53:26.923Z,3.10
2022-08-17T02:53:38.313Z,2.83
2022-08-17T02:53:49.856Z,2.83
2022-08-17T02:54:35.712Z,2.55
2022-08-17T02:54:39.334Z,2.92
2022-08-17T02:54:52.299Z,3.37
2022-08-17T02:55:09.949Z,3.17
2022-08-17T02:55:28.843Z,2.75
2022-08-17T02:55:42.005Z,3.45
2022-08-17T02:55:53.591Z,3.70
2022-08-17T02:56:05.065Z,3.28
2022-08-17T02:56:16.828Z,3.33
2022-08-17T02:56:28.236Z,3.35
2022-08-17T02:56:39.616Z,3.20
2022-08-17T02:56:51.456Z,2.70
2022-08-17T02:57:03.023Z,2.60
2022-08-17T02:57:14.437Z,2.72
2022-08-17T02:57:25.820Z,2.70
2022-08-17T02:57:37.961Z,2.88
2022-08-17T02:57:50.386Z,3.00
2022-08-17T02:58:02.081Z,3.20
2022-08-17T02:58:13.534Z,3.25
2022-08-17T02:58:34.523Z,3.05
2022-08-17T02:58:47.445Z,2.67
2022-08-17T02:58:58.850Z,2.85
2022-08-17T02:59:10.290Z,2.85
2022-08-17T02:59:21.726Z,2.78
2022-08-17T02:59:33.146Z,2.35
2022-08-17T02:59:49.051Z,2.40
2022-08-17T03:00:00.714Z,2.75
2022-08-17T03:00:25.209Z,3.00
2022-08-17T03:00:40.625Z,2.72
2022-08-17T03:00:52.103Z,2.67
2022-08-17T03:01:09.341Z,2.67
2022-08-17T03:01:20.795Z,2.80
2022-08-17T03:01:32.243Z,2.95
2022-08-17T03:01:43.698Z,3.05
2022-08-17T03:01:55.483Z,3.08
2022-08-17T03:02:09.962Z,3.00
2022-08-17T03:02:21.371Z,2.72
2022-08-17T03:02:41.040Z,2.67
2022-08-17T03:02:52.732Z,2.95
2022-08-17T03:03:05.751Z,2.75
2022-08-17T03:03:18.379Z,2.78
2022-08-17T03:03:29.887Z,2.65
2022-08-17T03:03:41.346Z,2.90
2022-08-17T03:03:52.884Z,2.90
2022-08-17T03:04:04.538Z,2.80
2022-08-17T03:04:16.535Z,2.72
2022-08-17T03:04:27.937Z,2.90
2022-08-17T03:04:39.355Z,2.92
2022-08-17T03:04:50.822Z,2.72
2022-08-17T03:05:02.242Z,2.60
2022-08-17T03:05:17.349Z,2.55
2022-08-17T03:05:32.420Z,2.60
2022-08-17T03:05:44.478Z,2.70
2022-08-17T03:05:55.869Z,2.60
2022-08-17T03:06:08.073Z,2.30
2022-08-17T03:06:19.461Z,2.55
2022-08-17T03:06:30.838Z,2.72
2022-08-17T03:06:42.302Z,2.90
2022-08-17T03:06:53.721Z,2.80
2022-08-17T03:07:05.288Z,2.60
2022-08-17T03:07:16.720Z,2.60
2022-08-17T03:07:28.133Z,2.70
2022-08-17T03:07:39.554Z,2.58
2022-08-17T03:07:51.959Z,2.38
2022-08-17T03:08:04.908Z,2.20
2022-08-17T03:08:17.964Z,2.38
2022-08-17T03:08:30.236Z,2.55
2022-08-17T03:08:41.622Z,2.38
2022-08-17T03:08:53.039Z,2.50
2022-08-17T03:09:04.827Z,2.83
2022-08-17T03:09:16.238Z,3.00
2022-08-17T03:09:27.680Z,3.08
2022-08-17T03:09:39.114Z,3.05
2022-08-17T03:09:50.562Z,3.10
2022-08-17T03:10:02.016Z,3.17
2022-08-17T03:10:14.347Z,3.10
2022-08-17T03:10:25.853Z,2.47
2022-08-17T03:10:37.800Z,2.40
2022-08-17T03:10:49.198Z,2.60
2022-08-17T03:11:00.611Z,2.50
2022-08-17T03:11:12.059Z,2.42
2022-08-17T03:11:23.490Z,2.55
2022-08-17T03:11:34.989Z,2.67
2022-08-17T03:11:46.398Z,2.88
2022-08-17T03:12:10.133Z,2.92
2022-08-17T03:12:21.551Z,2.72
2022-08-17T03:12:34.673Z,2.70
2022-08-17T03:12:46.774Z,2.92